createdAt,value
2024-04-30T00:02:04.068Z,98909.98
2024-04-30T00:04:35.205Z,98909.42
2024-04-30T00:07:07.147Z,98911.08
2024-04-30T00:09:41.727Z,98909.95
2024-04-30T00:12:12.946Z,98910.93
2024-04-30T00:14:44.095Z,98909.88
2024-04-30T00:17:15.193Z,98907.59
2024-04-30T00:19:46.514Z,98906.02
2024-04-30T00:22:17.685Z,98910.14
2024-04-30T00:24:48.722Z,98909.69
2024-04-30T00:27:19.684Z,98910.52
2024-04-30T00:29:50.946Z,98908.91
2024-04-30T00:32:22.160Z,98907.45
2024-04-30T00:34:55.914Z,98902.55
2024-04-30T00:37:27.337Z,98901.49
2024-04-30T00:39:58.455Z,98894.02
2024-04-30T00:42:30.190Z,98895.89
2024-04-30T00:45:01.670Z,98894.30
2024-04-30T00:47:34.091Z,98888.37
2024-04-30T00:50:06.524Z,98886.96
2024-04-30T00:52:37.901Z,98887.45
2024-04-30T00:55:09.536Z,98887.91
2024-04-30T00:57:41.180Z,98888.92
2024-04-30T01:00:14.524Z,98885.77
2024-04-30T01:02:46.459Z,98887.46
2024-04-30T01:05:17.955Z,98883.83
2024-04-30T01:07:49.382Z,98882.09
2024-04-30T01:10:20.830Z,98875.52
2024-04-30T01:12:53.277Z,98873.07
2024-04-30T01:15:24.307Z,98877.04
2024-04-30T01:17:56.007Z,98869.94
2024-04-30T01:20:27.817Z,98874.08
2024-04-30T01:22:59.500Z,98871.09
2024-04-30T01:25:30.756Z,98870.55
2024-04-30T01:28:02.009Z,98869.79
2024-04-30T01:30:33.270Z,98874.56
2024-04-30T01:33:05.044Z,98876.07
2024-04-30T01:35:36.109Z,98871.48
2024-04-30T01:38:08.060Z,98871.73
2024-04-30T01:40:39.186Z,98870.25
2024-04-30T01:43:10.738Z,98870.66
2024-04-30T01:45:41.815Z,98869.73
2024-04-30T01:48:12.904Z,98867.26
2024-04-30T01:50:44.084Z,98867.23
2024-04-30T01:53:15.793Z,98863.60
2024-04-30T01:55:46.902Z,98860.64
2024-04-30T01:58:18.154Z,98858.52
2024-04-30T02:00:49.097Z,98855.20
2024-04-30T02:03:20.162Z,98853.83
2024-04-30T02:05:51.388Z,98855.07
2024-04-30T02:08:22.229Z,98850.57
2024-04-30T02:10:53.267Z,98843.80
2024-04-30T02:13:24.692Z,98840.16
2024-04-30T02:15:55.980Z,98837.06
2024-04-30T02:18:27.197Z,98839.66
2024-04-30T02:20:58.315Z,98835.67
2024-04-30T02:23:29.640Z,98829.58
2024-04-30T02:26:02.664Z,98829.52
2024-04-30T02:28:34.082Z,98825.73
2024-04-30T02:31:19.495Z,98823.34
2024-04-30T02:34:04.987Z,98818.04
2024-04-30T02:36:36.563Z,98814.79
2024-04-30T02:39:10.201Z,98814.46
2024-04-30T02:41:41.242Z,98810.70
2024-04-30T02:44:13.016Z,98807.15
2024-04-30T02:46:44.624Z,98802.34
2024-04-30T02:49:16.478Z,98806.13
2024-04-30T02:51:48.172Z,98800.43
2024-04-30T02:54:19.190Z,98799.09
2024-04-30T02:56:50.417Z,98795.32
2024-04-30T02:59:21.741Z,98791.52
2024-04-30T03:01:52.994Z,98786.02
2024-04-30T03:04:24.235Z,98782.75
2024-04-30T03:06:55.363Z,98784.10
2024-04-30T03:09:26.452Z,98783.71
2024-04-30T03:11:57.668Z,98783.69
2024-04-30T03:14:29.017Z,98780.59
2024-04-30T03:17:00.237Z,98779.19
2024-04-30T03:19:31.714Z,98779.17
2024-04-30T03:22:03.148Z,98774.84
2024-04-30T03:24:34.279Z,98775.69
2024-04-30T03:27:06.027Z,98769.99
2024-04-30T03:29:37.220Z,98764.64
2024-04-30T03:32:08.979Z,98767.02
2024-04-30T03:34:40.743Z,98768.73
2024-04-30T03:37:11.951Z,98767.34
2024-04-30T03:39:43.160Z,98765.55
2024-04-30T03:42:14.343Z,98766.52
2024-04-30T03:44:45.496Z,98765.08
2024-04-30T03:47:16.790Z,98761.91
2024-04-30T03:49:48.140Z,98765.11
2024-04-30T03:52:20.074Z,98768.98
2024-04-30T03:54:51.195Z,98772.20
2024-04-30T03:57:22.500Z,98770.75
2024-04-30T03:59:54.020Z,98771.40
2024-04-30T04:02:25.235Z,98770.13
2024-04-30T04:04:56.431Z,98768.36
2024-04-30T04:07:27.836Z,98772.47
2024-04-30T04:09:59.195Z,98771.55
2024-04-30T04:12:44.584Z,98774.66
2024-04-30T04:15:15.978Z,98771.92
2024-04-30T04:17:46.989Z,98770.89
2024-04-30T04:20:18.303Z,98769.02
2024-04-30T04:22:49.315Z,98770.25
2024-04-30T04:25:20.430Z,98765.73
2024-04-30T04:27:51.573Z,98762.52
2024-04-30T04:30:22.643Z,98763.77
2024-04-30T04:32:53.837Z,98767.14
2024-04-30T04:35:24.892Z,98768.75
2024-04-30T04:37:55.931Z,98767.44
2024-04-30T04:40:27.235Z,98764.23
2024-04-30T04:42:58.408Z,98761.35
2024-04-30T04:45:29.621Z,98755.53
2024-04-30T04:48:01.134Z,98750.95
2024-04-30T04:50:32.415Z,98754.14
2024-04-30T04:53:03.613Z,98758.88
2024-04-30T04:55:35.397Z,98756.18
2024-04-30T04:58:07.154Z,98764.39
2024-04-30T05:00:38.454Z,98763.13
2024-04-30T05:03:09.762Z,98761.00
2024-04-30T05:05:41.007Z,98757.30
2024-04-30T05:08:12.074Z,98756.16
2024-04-30T05:10:43.291Z,98755.67
2024-04-30T05:13:14.584Z,98757.25
2024-04-30T05:15:45.654Z,98759.71
2024-04-30T05:18:16.930Z,98760.61
2024-04-30T05:20:48.234Z,98757.52
2024-04-30T05:23:19.179Z,98753.24
2024-04-30T05:25:50.327Z,98753.96
2024-04-30T05:28:21.416Z,98755.40
2024-04-30T05:30:53.215Z,98752.16
2024-04-30T05:33:24.541Z,98754.95
2024-04-30T05:35:55.923Z,98750.90
2024-04-30T05:38:26.934Z,98751.62
2024-04-30T05:40:58.016Z,98747.54
2024-04-30T05:43:29.079Z,98743.51
2024-04-30T05:46:00.384Z,98740.41
2024-04-30T05:48:31.621Z,98739.41
2024-04-30T05:51:02.853Z,98738.71
2024-04-30T05:53:36.700Z,98736.10
2024-04-30T05:56:09.373Z,98731.58
2024-04-30T05:58:40.956Z,98728.61
2024-04-30T06:01:14.255Z,98727.73
2024-04-30T06:03:45.477Z,98728.39
2024-04-30T06:06:17.020Z,98720.91
2024-04-30T06:08:48.237Z,98718.94
2024-04-30T06:11:19.519Z,98713.35
2024-04-30T06:13:50.728Z,98712.23
2024-04-30T06:16:22.147Z,98713.01
2024-04-30T06:18:53.241Z,98706.38
2024-04-30T06:21:31.151Z,98706.15
2024-04-30T06:24:08.214Z,98705.92
2024-04-30T06:26:42.886Z,98705.84
2024-04-30T06:29:14.116Z,98704.02
2024-04-30T06:31:45.767Z,98700.30
2024-04-30T06:34:17.157Z,98698.98
2024-04-30T06:36:48.291Z,98701.33
2024-04-30T06:39:20.594Z,98700.35
2024-04-30T06:41:51.837Z,98700.40
2024-04-30T06:44:22.707Z,98696.12
2024-04-30T06:46:54.128Z,98691.14
2024-04-30T06:49:26.557Z,98689.98
2024-04-30T06:51:58.092Z,98685.88
2024-04-30T06:54:29.448Z,98685.23
2024-04-30T06:57:01.227Z,98686.49
2024-04-30T06:59:33.255Z,98683.40
2024-04-30T07:02:04.492Z,98682.23
2024-04-30T07:04:35.644Z,98681.40
2024-04-30T07:07:07.356Z,98681.06
2024-04-30T07:09:38.573Z,98681.10
2024-04-30T07:12:12.579Z,98683.20
2024-04-30T07:14:43.771Z,98673.32
2024-04-30T07:17:14.976Z,98675.42
2024-04-30T07:19:53.453Z,98673.53
2024-04-30T07:22:24.579Z,98674.58
2024-04-30T07:24:55.700Z,98677.57
2024-04-30T07:27:27.060Z,98678.10
2024-04-30T07:29:58.135Z,98681.94
2024-04-30T07:32:29.995Z,98682.80
2024-04-30T07:35:01.180Z,98677.41
2024-04-30T07:37:32.366Z,98667.86
2024-04-30T07:40:03.597Z,98667.85
2024-04-30T07:42:35.018Z,98668.36
2024-04-30T07:45:07.230Z,98670.79
2024-04-30T07:47:38.710Z,98667.48
2024-04-30T07:50:10.259Z,98665.56
2024-04-30T07:52:41.496Z,98666.25
2024-04-30T07:55:12.541Z,98670.41
2024-04-30T07:57:44.277Z,98670.39
2024-04-30T08:00:16.731Z,98675.06
2024-04-30T08:02:47.967Z,98673.33
2024-04-30T08:05:19.169Z,98671.92
2024-04-30T08:07:50.207Z,98668.10
2024-04-30T08:10:21.466Z,98662.52
2024-04-30T08:12:52.695Z,98653.96
2024-04-30T08:15:25.442Z,98652.71
2024-04-30T08:17:58.965Z,98653.56
2024-04-30T08:20:30.156Z,98653.70
2024-04-30T08:23:01.430Z,98652.80
2024-04-30T08:25:32.749Z,98652.21
2024-04-30T08:28:04.342Z,98651.66
2024-04-30T08:30:35.326Z,98646.02
2024-04-30T08:33:07.208Z,98642.83
2024-04-30T08:35:38.186Z,98639.99
2024-04-30T08:38:10.955Z,98640.12
2024-04-30T08:40:42.057Z,98640.90
2024-04-30T08:43:13.953Z,98634.70
2024-04-30T08:45:45.894Z,98635.13
2024-04-30T08:48:19.329Z,98636.42
2024-04-30T08:50:51.172Z,98637.57
2024-04-30T08:53:24.833Z,98632.07
2024-04-30T08:55:56.249Z,98628.14
2024-04-30T08:58:27.146Z,98625.27
2024-04-30T09:00:58.207Z,98624.66
2024-04-30T09:03:29.285Z,98624.06
2024-04-30T09:06:00.739Z,98616.63
2024-04-30T09:08:31.743Z,98614.27
2024-04-30T09:11:02.535Z,98613.45
2024-04-30T09:13:37.532Z,98609.35
2024-04-30T09:16:09.997Z,98613.42
2024-04-30T09:18:51.176Z,98609.28
2024-04-30T09:21:29.782Z,98609.35
2024-04-30T09:24:09.867Z,98607.35
2024-04-30T09:26:41.025Z,98604.83
2024-04-30T09:29:12.161Z,98604.05
2024-04-30T09:31:43.596Z,98603.96
2024-04-30T09:34:14.495Z,98603.35
2024-04-30T09:36:45.786Z,98596.60
2024-04-30T09:39:16.962Z,98592.98
2024-04-30T09:41:48.827Z,98591.66
2024-04-30T09:44:19.923Z,98591.25
2024-04-30T09:46:53.145Z,98588.58
2024-04-30T09:49:25.082Z,98587.48
2024-04-30T09:51:56.812Z,98584.79
2024-04-30T09:54:31.967Z,98582.96
2024-04-30T09:57:04.879Z,98587.77
2024-04-30T09:59:36.296Z,98584.30
2024-04-30T10:02:13.116Z,98582.96
2024-04-30T10:04:45.743Z,98575.31
2024-04-30T10:07:17.534Z,98569.08
2024-04-30T10:09:55.351Z,98556.66
2024-04-30T10:12:30.659Z,98557.52
2024-04-30T10:15:14.053Z,98554.54
2024-04-30T10:17:45.669Z,98551.73
2024-04-30T10:20:27.093Z,98548.73
2024-04-30T10:22:58.127Z,98551.14
2024-04-30T10:25:29.516Z,98547.81
2024-04-30T10:28:13.985Z,98546.76
2024-04-30T10:30:45.156Z,98542.17
2024-04-30T10:33:25.482Z,98536.23
2024-04-30T10:35:56.546Z,98526.52
2024-04-30T10:38:27.449Z,98522.90
2024-04-30T10:41:03.030Z,98521.02
2024-04-30T10:43:34.337Z,98519.31
2024-04-30T10:46:13.970Z,98520.58
2024-04-30T10:48:52.824Z,98520.09
2024-04-30T10:51:25.675Z,98518.95
2024-04-30T10:54:01.914Z,98516.02
2024-04-30T10:56:33.346Z,98512.52
2024-04-30T10:59:04.611Z,98507.45
2024-04-30T11:01:35.884Z,98502.71
2024-04-30T11:04:10.937Z,98498.89
2024-04-30T11:06:46.562Z,98496.44
2024-04-30T11:09:18.506Z,98495.59
2024-04-30T11:11:55.860Z,98495.25
2024-04-30T11:14:27.026Z,98493.83
2024-04-30T11:16:58.593Z,98486.34
2024-04-30T11:19:29.891Z,98483.99
2024-04-30T11:22:01.659Z,98479.98
2024-04-30T11:24:33.102Z,98474.14
2024-04-30T11:27:04.759Z,98473.91
2024-04-30T11:29:40.023Z,98476.91
2024-04-30T11:32:12.211Z,98475.92
2024-04-30T11:34:43.533Z,98474.33
2024-04-30T11:37:14.729Z,98472.27
2024-04-30T11:39:46.051Z,98470.88
2024-04-30T11:42:21.482Z,98470.52
2024-04-30T11:44:58.271Z,98468.88
2024-04-30T11:47:30.011Z,98464.77
2024-04-30T11:50:01.520Z,98462.77
2024-04-30T11:52:32.822Z,98457.67
2024-04-30T11:55:04.680Z,98460.45
2024-04-30T11:57:37.099Z,98458.27
2024-04-30T12:00:11.679Z,98454.15
2024-04-30T12:02:44.285Z,98451.11
2024-04-30T12:05:16.108Z,98449.30
2024-04-30T12:07:47.296Z,98448.67
2024-04-30T12:10:18.583Z,98445.42
2024-04-30T12:12:49.904Z,98439.01
2024-04-30T12:15:20.947Z,98436.95
2024-04-30T12:17:52.328Z,98434.64
2024-04-30T12:20:23.552Z,98428.27
2024-04-30T12:22:54.728Z,98428.52
2024-04-30T12:25:25.954Z,98426.95
2024-04-30T12:27:56.823Z,98425.98
2024-04-30T12:30:27.722Z,98422.74
2024-04-30T12:32:59.007Z,98420.37
2024-04-30T12:35:30.518Z,98419.10
2024-04-30T12:38:01.413Z,98416.95
2024-04-30T12:40:32.395Z,98418.84
2024-04-30T12:43:03.385Z,98415.62
2024-04-30T12:45:34.520Z,98410.69
2024-04-30T12:48:06.524Z,98412.38
2024-04-30T12:50:37.383Z,98408.90
2024-04-30T12:53:08.565Z,98403.20
2024-04-30T12:55:40.050Z,98397.55
2024-04-30T12:58:11.372Z,98394.04
2024-04-30T13:00:42.359Z,98395.95
2024-04-30T13:03:13.240Z,98391.74
2024-04-30T13:05:44.197Z,98389.57
2024-04-30T13:08:15.055Z,98385.54
2024-04-30T13:10:45.868Z,98384.31
2024-04-30T13:13:17.016Z,98382.71
2024-04-30T13:15:47.876Z,98379.13
2024-04-30T13:18:18.760Z,98373.94
2024-04-30T13:20:49.486Z,98370.52
2024-04-30T13:23:20.273Z,98371.10
2024-04-30T13:25:51.160Z,98369.54
2024-04-30T13:28:22.051Z,98367.67
2024-04-30T13:30:53.108Z,98362.94
2024-04-30T13:33:24.092Z,98361.23
2024-04-30T13:35:55.038Z,98362.40
2024-04-30T13:38:25.992Z,98360.07
2024-04-30T13:40:56.726Z,98354.17
2024-04-30T13:43:27.954Z,98355.19
2024-04-30T13:45:59.501Z,98349.96
2024-04-30T13:48:30.630Z,98349.02
2024-04-30T13:51:01.885Z,98346.32
2024-04-30T13:53:37.020Z,98342.69
2024-04-30T13:56:12.325Z,98342.99
2024-04-30T13:58:43.305Z,98336.86
2024-04-30T14:01:18.408Z,98334.05
2024-04-30T14:03:49.518Z,98326.50
2024-04-30T14:06:22.230Z,98329.27
2024-04-30T14:08:53.731Z,98328.29
2024-04-30T14:11:24.698Z,98319.16
2024-04-30T14:13:55.698Z,98318.23
2024-04-30T14:16:26.864Z,98314.23
2024-04-30T14:18:58.041Z,98315.22
2024-04-30T14:21:28.988Z,98308.48
2024-04-30T14:24:00.339Z,98310.40
2024-04-30T14:26:31.321Z,98308.83
2024-04-30T14:29:02.334Z,98312.64
2024-04-30T14:31:33.345Z,98312.27
2024-04-30T14:34:04.577Z,98308.15
2024-04-30T14:36:36.782Z,98309.92
2024-04-30T14:39:11.221Z,98305.98
2024-04-30T14:41:43.335Z,98304.61
2024-04-30T14:44:14.826Z,98302.08
2024-04-30T14:46:46.128Z,98301.71
2024-04-30T14:49:17.363Z,98300.47
2024-04-30T14:51:48.346Z,98296.38
2024-04-30T14:54:19.289Z,98294.67
2024-04-30T14:56:52.510Z,98293.23
2024-04-30T14:59:25.235Z,98293.03
2024-04-30T15:01:56.226Z,98285.52
2024-04-30T15:04:27.353Z,98285.59
2024-04-30T15:06:58.311Z,98286.10
2024-04-30T15:09:32.581Z,98286.10
2024-04-30T15:12:06.796Z,98286.16
2024-04-30T15:14:37.615Z,98282.04
2024-04-30T15:17:08.497Z,98282.95
2024-04-30T15:19:40.907Z,98282.02
2024-04-30T15:22:12.098Z,98278.65
2024-04-30T15:24:43.220Z,98277.86
2024-04-30T15:27:14.409Z,98275.77
2024-04-30T15:29:45.620Z,98275.23
2024-04-30T15:32:16.819Z,98277.26
2024-04-30T15:34:47.834Z,98273.52
2024-04-30T15:37:20.009Z,98273.33
2024-04-30T15:39:52.132Z,98275.29
2024-04-30T15:42:23.067Z,98277.36
2024-04-30T15:44:54.386Z,98270.73
2024-04-30T15:47:25.376Z,98268.17
2024-04-30T15:49:56.415Z,98268.83
2024-04-30T15:52:27.277Z,98263.66
2024-04-30T15:54:59.261Z,98268.73
2024-04-30T15:57:30.526Z,98268.26
2024-04-30T16:00:01.835Z,98264.88
2024-04-30T16:02:33.116Z,98268.36
2024-04-30T16:05:04.674Z,98265.89
2024-04-30T16:07:35.875Z,98268.23
2024-04-30T16:10:08.751Z,98268.84
2024-04-30T16:12:39.663Z,98265.08
2024-04-30T16:15:11.715Z,98263.27
2024-04-30T16:17:43.022Z,98263.03
2024-04-30T16:20:13.852Z,98262.96
2024-04-30T16:22:44.919Z,98261.75
2024-04-30T16:25:16.638Z,98263.23
2024-04-30T16:27:47.608Z,98260.73
2024-04-30T16:30:18.983Z,98261.49
2024-04-30T16:32:52.437Z,98263.19
2024-04-30T16:35:23.425Z,98262.36
2024-04-30T16:37:54.242Z,98263.67
2024-04-30T16:40:25.278Z,98260.36
2024-04-30T16:42:56.303Z,98261.33
2024-04-30T16:45:27.700Z,98261.05
2024-04-30T16:47:58.993Z,98257.01
2024-04-30T16:50:30.266Z,98254.08
2024-04-30T16:53:01.523Z,98252.71
2024-04-30T16:55:32.943Z,98251.13
2024-04-30T16:58:05.374Z,98250.70
2024-04-30T17:00:36.489Z,98249.75
2024-04-30T17:03:07.961Z,98247.91
2024-04-30T17:05:39.188Z,98250.04
2024-04-30T17:08:10.417Z,98248.11
2024-04-30T17:10:41.388Z,98252.96
2024-04-30T17:13:12.359Z,98249.52
2024-04-30T17:15:43.547Z,98248.55
2024-04-30T17:18:14.524Z,98249.23
2024-04-30T17:20:45.704Z,98243.95
2024-04-30T17:23:16.902Z,98245.67
2024-04-30T17:25:47.935Z,98244.54
2024-04-30T17:28:20.586Z,98240.29
2024-04-30T17:30:51.635Z,98240.89
2024-04-30T17:33:22.769Z,98237.35
2024-04-30T17:35:53.750Z,98237.36
2024-04-30T17:38:24.639Z,98238.69
2024-04-30T17:40:55.566Z,98236.91
2024-04-30T17:43:26.838Z,98236.09
2024-04-30T17:45:58.287Z,98241.71
2024-04-30T17:48:29.266Z,98244.89
2024-04-30T17:51:00.249Z,98244.81
2024-04-30T17:53:31.143Z,98240.60
2024-04-30T17:56:02.174Z,98240.58
2024-04-30T17:58:33.114Z,98245.61
2024-04-30T18:01:06.904Z,98248.79
2024-04-30T18:03:38.057Z,98250.57
2024-04-30T18:06:13.353Z,98254.92
2024-04-30T18:08:44.150Z,98250.30
2024-04-30T18:11:15.223Z,98248.89
2024-04-30T18:13:46.796Z,98251.80
2024-04-30T18:16:17.770Z,98251.05
2024-04-30T18:18:49.583Z,98249.21
2024-04-30T18:21:21.452Z,98247.64
2024-04-30T18:23:52.621Z,98256.26
2024-04-30T18:26:24.118Z,98259.06
2024-04-30T18:28:56.102Z,98261.75
2024-04-30T18:31:29.102Z,98261.90
2024-04-30T18:34:01.148Z,98261.79
2024-04-30T18:36:37.331Z,98258.50
2024-04-30T18:39:13.485Z,98255.76
2024-04-30T18:41:45.166Z,98259.94
2024-04-30T18:44:16.548Z,98260.17
2024-04-30T18:46:47.410Z,98256.76
2024-04-30T18:49:19.596Z,98256.40
2024-04-30T18:51:52.772Z,98253.98
2024-04-30T18:54:24.191Z,98254.58
2024-04-30T18:56:56.336Z,98259.41
2024-04-30T18:59:29.898Z,98262.05
2024-04-30T19:02:01.680Z,98263.10
2024-04-30T19:04:33.978Z,98259.94
2024-04-30T19:07:06.137Z,98261.83
2024-04-30T19:09:40.751Z,98267.95
2024-04-30T19:12:12.660Z,98265.21
2024-04-30T19:14:45.054Z,98261.66
2024-04-30T19:17:16.710Z,98263.48
2024-04-30T19:19:50.417Z,98265.42
2024-04-30T19:22:22.772Z,98263.17
2024-04-30T19:24:54.786Z,98264.42
2024-04-30T19:27:25.856Z,98263.60
2024-04-30T19:29:56.863Z,98262.06
2024-04-30T19:32:29.200Z,98254.94
2024-04-30T19:35:00.428Z,98255.91
2024-04-30T19:37:32.544Z,98253.59
2024-04-30T19:40:03.792Z,98252.85
2024-04-30T19:42:37.878Z,98252.33
2024-04-30T19:45:10.264Z,98251.77
2024-04-30T19:47:41.796Z,98248.02
2024-04-30T19:50:12.924Z,98251.97
2024-04-30T19:52:43.948Z,98249.47
2024-04-30T19:55:15.341Z,98247.45
2024-04-30T19:57:49.026Z,98244.88
2024-04-30T20:00:20.476Z,98245.48
2024-04-30T20:02:51.836Z,98241.20
2024-04-30T20:05:23.512Z,98244.23
2024-04-30T20:07:59.169Z,98236.78
2024-04-30T20:10:30.735Z,98234.89
2024-04-30T20:13:02.126Z,98234.05
2024-04-30T20:15:33.963Z,98230.40
2024-04-30T20:18:05.589Z,98230.80
2024-04-30T20:20:36.737Z,98228.58
2024-04-30T20:23:09.421Z,98226.88
2024-04-30T20:25:41.506Z,98226.75
2024-04-30T20:28:13.003Z,98224.69
2024-04-30T20:30:44.182Z,98219.52
2024-04-30T20:33:15.836Z,98222.41
2024-04-30T20:35:47.079Z,98222.31
2024-04-30T20:38:18.757Z,98219.77
2024-04-30T20:40:50.227Z,98213.25
2024-04-30T20:43:21.412Z,98212.84
2024-04-30T20:45:52.850Z,98210.66
2024-04-30T20:48:24.396Z,98209.20
2024-04-30T20:50:55.611Z,98208.43
2024-04-30T20:53:26.781Z,98206.61
2024-04-30T20:55:57.858Z,98209.10
2024-04-30T20:58:28.863Z,98211.78
2024-04-30T21:00:59.879Z,98209.48
2024-04-30T21:03:31.297Z,98205.21
2024-04-30T21:06:02.682Z,98200.77
2024-04-30T21:08:33.491Z,98206.42
2024-04-30T21:11:04.806Z,98203.52
2024-04-30T21:13:36.324Z,98203.04
2024-04-30T21:16:08.592Z,98199.59
2024-04-30T21:18:39.841Z,98195.28
2024-04-30T21:21:11.105Z,98196.36
2024-04-30T21:23:43.575Z,98194.67
2024-04-30T21:26:14.626Z,98193.34
2024-04-30T21:28:45.451Z,98189.41
2024-04-30T21:31:19.466Z,98186.69
2024-04-30T21:33:50.470Z,98185.15
2024-04-30T21:36:21.857Z,98184.29
2024-04-30T21:38:52.747Z,98181.52
2024-04-30T21:41:23.703Z,98180.66
2024-04-30T21:43:54.683Z,98177.23
2024-04-30T21:46:25.689Z,98175.01
2024-04-30T21:48:56.683Z,98171.04
2024-04-30T21:51:28.579Z,98169.33
2024-04-30T21:53:59.513Z,98162.89
2024-04-30T21:56:31.657Z,98162.58
2024-04-30T21:59:02.607Z,98155.64
2024-04-30T22:01:33.581Z,98153.09
2024-04-30T22:04:04.723Z,98149.33
2024-04-30T22:06:36.180Z,98149.38
2024-04-30T22:09:07.068Z,98147.35
2024-04-30T22:11:38.575Z,98147.04
2024-04-30T22:14:09.855Z,98143.23
2024-04-30T22:16:40.769Z,98139.27
2024-04-30T22:19:11.665Z,98140.69
2024-04-30T22:21:42.736Z,98136.03
2024-04-30T22:24:13.843Z,98133.61
2024-04-30T22:26:44.980Z,98132.60
2024-04-30T22:29:19.198Z,98132.10
2024-04-30T22:31:51.799Z,98130.77
2024-04-30T22:34:22.925Z,98129.41
2024-04-30T22:36:56.991Z,98125.09
2024-04-30T22:39:28.132Z,98122.70
2024-04-30T22:41:59.222Z,98120.63
2024-04-30T22:44:30.525Z,98120.29
2024-04-30T22:47:02.772Z,98115.61
2024-04-30T22:49:33.794Z,98112.87
2024-04-30T22:52:05.849Z,98109.06
2024-04-30T22:54:36.687Z,98117.21
2024-04-30T22:57:08.337Z,98112.53
2024-04-30T22:59:39.597Z,98111.70
2024-04-30T23:02:10.541Z,98117.97
2024-04-30T23:04:41.822Z,98111.21
2024-04-30T23:07:13.416Z,98111.41
2024-04-30T23:09:44.513Z,98109.33
2024-04-30T23:12:15.459Z,98104.84
2024-04-30T23:14:46.343Z,98106.06
2024-04-30T23:17:17.690Z,98106.92
2024-04-30T23:19:49.057Z,98099.14
2024-04-30T23:22:23.198Z,98089.48
2024-04-30T23:24:54.194Z,98091.41
2024-04-30T23:27:25.382Z,98090.24
2024-04-30T23:29:56.516Z,98086.27
2024-04-30T23:32:27.670Z,98088.56
2024-04-30T23:35:00.438Z,98092.04
2024-04-30T23:37:31.842Z,98096.02
2024-04-30T23:40:03.154Z,98096.20
2024-04-30T23:42:38.256Z,98095.87
2024-04-30T23:45:10.085Z,98087.91
2024-04-30T23:47:41.154Z,98084.63
2024-04-30T23:50:12.278Z,98086.21
2024-04-30T23:52:45.878Z,98079.98
2024-04-30T23:55:17.269Z,98075.33
2024-04-30T23:57:48.488Z,98075.87
